Revere, Pennsylvania
Current Conditions -  °F | °C
As of 3:54 AM on Wednesday 26 Nov 2014 (Local Time) from KDYL Reporting Station
Overcast Overcast  
Wind Chill: 37°   Ceiling: 9000
Heat Index: 41°   Visibility: 10mi
Dew Point: 33°   Wind: 6mph
Humidity: 73%   Direction: 40°NE
Pressure: 30.14"   Gusts: NA
Location:  40.52°N, 75.16°W
Report Text: KDYL 260854Z AUTO 04005KT 10SM OVC090 05/01 A3014 RMK AO2 SLP210 T00500006 58006
Loading
Personal Weather Stations






























Interactive Weather Map New forecast layout! Learn more

10-Day Weather Forecast

Advertisements
Track Severe Weather on mobile